Time;durP1;ratioP1;P1;durP2;ratioP2;P2;SDS_P1;SDS_P2;PMS_P1;PMS_P2;Temp;Humidity;BMP_temperature;BMP_pressure;BME280_temperature;BME280_humidity;BME280_pressure;Samples;Min_cycle;Max_cycle;Signal;HPM_P1;HPM_P2
2022/06/09 00:00:10;;;;;;;29.20;10.35;;;;;;;11.41;100.00;100701.13;5046134;28;20386;-67
2022/06/09 00:02:38;;;;;;;29.20;10.45;;;;;;;11.45;100.00;100700.25;5043485;28;20465;-66
2022/06/09 00:05:05;;;;;;;30.55;11.23;;;;;;;11.43;100.00;100709.97;5046678;28;20482;-66
2022/06/09 00:07:31;;;;;;;32.72;11.15;;;;;;;11.45;100.00;100707.31;5043346;28;20032;-66
2022/06/09 00:10:11;;;;;;;29.45;10.88;;;;;;;11.46;100.00;100725.84;5046331;28;20456;-66
2022/06/09 00:12:37;;;;;;;29.80;11.48;;;;;;;11.47;100.00;100724.94;5040872;28;20075;-66
2022/06/09 00:15:05;;;;;;;28.70;11.40;;;;;;;11.49;100.00;100724.97;5046289;28;20432;-66
2022/06/09 00:17:31;;;;;;;31.40;11.68;;;;;;;11.46;100.00;100717.91;5039006;28;20029;-67
2022/06/09 00:19:56;;;;;;;34.45;12.48;;;;;;;11.48;100.00;100724.06;5046453;28;20529;-66
2022/06/09 00:22:21;;;;;;;31.85;12.98;;;;;;;11.47;100.00;100717.00;5043695;28;20472;-67
2022/06/09 00:24:47;;;;;;;32.05;12.85;;;;;;;11.48;100.00;100720.53;5044309;28;20036;-67
2022/06/09 00:27:12;;;;;;;30.70;12.82;;;;;;;11.49;100.00;100717.03;5044323;28;20025;-66
2022/06/09 00:29:38;;;;;;;34.33;13.02;;;;;;;11.50;100.00;100719.66;5043400;28;20033;-66
2022/06/09 00:32:04;;;;;;;35.05;11.98;;;;;;;11.50;100.00;100714.38;5045966;28;20457;-65
2022/06/09 00:34:29;;;;;;;31.55;11.73;;;;;;;11.49;100.00;100717.91;5042881;28;20867;-71
2022/06/09 00:36:54;;;;;;;32.75;12.30;;;;;;;11.48;100.00;100715.25;5045430;28;20486;-63
2022/06/09 00:39:20;;;;;;;32.58;11.43;;;;;;;11.49;100.00;100717.03;5043630;28;20029;-63
2022/06/09 00:41:45;;;;;;;34.53;11.27;;;;;;;11.44;100.00;100717.00;5044690;28;20037;-64
2022/06/09 00:44:18;;;;;;;31.42;11.43;;;;;;;11.41;100.00;100719.66;5044870;28;20028;-63
2022/06/09 00:47:07;;;;;;;30.55;10.75;;;;;;;11.37;100.00;100717.88;5043990;28;20032;-64
2022/06/09 00:49:44;;;;;;;30.25;10.60;;;;;;;11.34;100.00;100729.38;5041066;28;20026;-63
2022/06/09 00:52:14;;;;;;;34.85;11.63;;;;;;;11.33;100.00;100732.03;5040771;28;20021;-63
2022/06/09 00:54:45;;;;;;;32.63;11.70;;;;;;;11.29;100.00;100730.28;5044883;28;20082;-63
2022/06/09 00:57:23;;;;;;;33.35;10.88;;;;;;;11.26;100.00;100746.16;5043024;28;20029;-63
2022/06/09 00:59:54;;;;;;;31.00;10.77;;;;;;;11.23;100.00;100738.22;5043768;28;20025;-64
2022/06/09 01:02:21;;;;;;;30.13;10.68;;;;;;;11.20;100.00;100733.81;5044143;28;20540;-63
2022/06/09 01:04:50;;;;;;;31.75;10.95;;;;;;;11.18;100.00;100726.75;5044113;28;20036;-64
2022/06/09 01:07:19;;;;;;;32.13;10.80;;;;;;;11.20;100.00;100727.59;5043633;28;20025;-63
2022/06/09 01:09:45;;;;;;;35.83;11.55;;;;;;;11.19;100.00;100726.72;5043787;28;20025;-63
2022/06/09 01:12:21;;;;;;;33.55;12.20;;;;;;;11.18;100.00;100732.91;5043074;28;20040;-63
2022/06/09 01:14:46;;;;;;;35.30;11.43;;;;;;;11.22;100.00;100741.72;5043933;28;20033;-65
2022/06/09 01:17:29;;;;;;;36.97;11.90;;;;;;;11.24;100.00;100727.63;5043035;28;20025;-64
2022/06/09 01:20:15;;;;;;;35.03;11.95;;;;;;;11.23;100.00;100736.44;5042418;28;20067;-64
2022/06/09 01:23:11;;;;;;;35.40;12.02;;;;;;;11.23;100.00;100738.22;5039995;28;20044;-63
2022/06/09 01:25:49;;;;;;;34.47;12.48;;;;;;;11.24;100.00;100742.59;5038989;28;20497;-63
2022/06/09 01:28:37;;;;;;;34.05;12.75;;;;;;;11.25;100.00;100733.78;5043634;28;20024;-63
2022/06/09 01:31:18;;;;;;;37.33;12.43;;;;;;;11.29;100.00;100740.84;5037889;28;20025;-71
2022/06/09 01:33:50;;;;;;;39.97;13.13;;;;;;;11.28;100.00;100737.31;5040966;28;20025;-63
2022/06/09 01:36:23;;;;;;;34.38;12.27;;;;;;;11.29;100.00;100752.31;5041275;28;20052;-63
2022/06/09 01:38:54;;;;;;;34.25;12.25;;;;;;;11.30;100.00;100746.16;5043515;28;20395;-64
2022/06/09 01:41:22;;;;;;;35.47;11.70;;;;;;;11.31;100.00;100754.94;5042541;28;20028;-64
2022/06/09 01:43:49;;;;;;;33.95;12.13;;;;;;;11.32;100.00;100756.72;5043331;28;20017;-63
2022/06/09 01:46:30;;;;;;;38.55;12.45;;;;;;;11.31;100.00;100755.84;5043479;28;20388;-63
2022/06/09 01:49:02;;;;;;;32.53;12.25;;;;;;;11.31;100.00;100754.94;5044492;28;20158;-63
2022/06/09 01:51:32;;;;;;;37.22;12.00;;;;;;;11.30;100.00;100759.38;5041875;28;20060;-63
2022/06/09 01:54:01;;;;;;;36.08;12.23;;;;;;;11.30;100.00;100758.47;5044181;28;20083;-63
2022/06/09 01:56:39;;;;;;;32.75;12.07;;;;;;;11.29;100.00;100767.31;5041360;28;20055;-63
2022/06/09 01:59:25;;;;;;;37.22;11.93;;;;;;;11.25;100.00;100769.06;5037830;28;20362;-63
2022/06/09 02:01:57;;;;;;;36.42;12.95;;;;;;;11.23;100.00;100762.91;5042478;28;20017;-64
2022/06/09 02:04:30;;;;;;;37.58;12.95;;;;;;;11.22;100.00;100760.25;5043660;28;20050;-64
2022/06/09 02:06:56;;;;;;;35.60;12.95;;;;;;;11.18;100.00;100758.47;5041647;28;20040;-67
2022/06/09 02:09:27;;;;;;;34.55;12.63;;;;;;;11.18;100.00;100758.47;5043176;28;20033;-70
2022/06/09 02:11:56;;;;;;;37.60;14.00;;;;;;;11.16;100.00;100769.06;5042105;28;20025;-70
2022/06/09 02:14:27;;;;;;;36.83;13.80;;;;;;;11.15;100.00;100776.13;5043685;28;20017;-70
2022/06/09 02:16:52;;;;;;;38.53;13.50;;;;;;;11.14;100.00;100771.72;5041713;28;20107;-70
2022/06/09 02:19:18;;;;;;;41.00;14.30;;;;;;;11.14;100.00;100769.06;5042685;28;20108;-70
2022/06/09 02:21:43;;;;;;;41.20;14.35;;;;;;;11.16;100.00;100783.16;5043548;28;20079;-66
2022/06/09 02:24:09;;;;;;;39.25;14.52;;;;;;;11.17;100.00;100776.13;5041230;28;20021;-66
2022/06/09 02:26:35;;;;;;;38.88;14.77;;;;;;;11.16;100.00;100775.22;5044262;28;20036;-65
2022/06/09 02:29:00;;;;;;;45.42;15.80;;;;;;;11.17;100.00;100789.38;5036934;28;20511;-66
2022/06/09 02:31:26;;;;;;;40.20;14.73;;;;;;;11.15;100.00;100792.00;5043870;28;20025;-67
2022/06/09 02:33:54;;;;;;;41.20;15.48;;;;;;;11.13;100.00;100796.41;5041631;28;20025;-67
2022/06/09 02:36:20;;;;;;;44.00;15.75;;;;;;;11.08;100.00;100795.53;5042590;28;20107;-66
2022/06/09 02:38:46;;;;;;;37.03;15.23;;;;;;;11.08;100.00;100789.34;5042853;28;20024;-67
2022/06/09 02:41:11;;;;;;;40.58;15.48;;;;;;;11.09;100.00;100807.84;5041478;28;20045;-65
2022/06/09 02:43:37;;;;;;;40.45;15.63;;;;;;;11.07;100.00;100804.34;5044203;28;20056;-65
2022/06/09 02:46:03;;;;;;;43.95;15.73;;;;;;;11.06;100.00;100813.13;5040638;28;20036;-66
2022/06/09 02:48:30;;;;;;;44.47;17.15;;;;;;;11.07;100.00;100806.09;5044426;28;20112;-65
2022/06/09 02:50:55;;;;;;;44.55;16.73;;;;;;;11.06;100.00;100810.50;5045725;28;20048;-66
2022/06/09 02:53:22;;;;;;;42.15;17.08;;;;;;;11.06;100.00;100810.50;5046598;28;20465;-70
2022/06/09 02:55:48;;;;;;;43.10;17.30;;;;;;;11.07;100.00;100816.69;5046223;28;20537;-66
2022/06/09 02:58:13;;;;;;;43.40;17.02;;;;;;;11.07;100.00;100814.91;5045463;28;20033;-63
2022/06/09 03:00:39;;;;;;;46.55;17.80;;;;;;;11.05;100.00;100815.78;5047256;28;20032;-64
2022/06/09 03:03:08;;;;;;;42.00;17.48;;;;;;;11.03;100.00;100823.72;5044574;28;20025;-63
2022/06/09 03:05:35;;;;;;;41.35;16.77;;;;;;;11.04;100.00;100829.88;5040650;28;20036;-63
2022/06/09 03:08:02;;;;;;;42.75;17.65;;;;;;;11.05;100.00;100827.22;5044481;28;20036;-63
2022/06/09 03:10:27;;;;;;;46.88;19.05;;;;;;;11.06;100.00;100833.44;5047398;28;20025;-63
2022/06/09 03:12:53;;;;;;;42.28;18.02;;;;;;;11.05;100.00;100840.47;5045179;28;20036;-64
2022/06/09 03:15:22;;;;;;;45.20;18.58;;;;;;;11.04;100.00;100840.47;5046204;28;20037;-64
2022/06/09 03:17:49;;;;;;;46.38;18.98;;;;;;;11.02;100.00;100840.47;5045835;28;20060;-64
2022/06/09 03:20:18;;;;;;;45.20;18.38;;;;;;;11.02;100.00;100853.69;5045269;28;20032;-64
2022/06/09 03:22:44;;;;;;;40.97;17.67;;;;;;;10.98;100.00;100846.66;5046462;28;20017;-64
2022/06/09 03:25:09;;;;;;;43.38;18.15;;;;;;;10.96;100.00;100859.84;5044441;28;20354;-65
2022/06/09 03:27:35;;;;;;;41.97;17.77;;;;;;;10.97;100.00;100855.44;5047864;28;20036;-63
2022/06/09 03:30:01;;;;;;;42.63;18.25;;;;;;;10.95;100.00;100858.09;5043838;28;20436;-64
2022/06/09 03:32:27;;;;;;;43.55;18.23;;;;;;;10.91;100.00;100853.66;5046756;28;20464;-63
2022/06/09 03:34:53;;;;;;;45.33;18.35;;;;;;;10.87;100.00;100858.94;5044838;28;20060;-63
2022/06/09 03:37:18;;;;;;;42.95;18.15;;;;;;;10.85;100.00;100868.63;5045299;28;20029;-63
2022/06/09 03:39:44;;;;;;;45.78;18.25;;;;;;;10.82;100.00;100872.16;5046125;28;20040;-63
2022/06/09 03:42:09;;;;;;;41.88;17.92;;;;;;;10.79;100.00;100873.03;5044443;28;20014;-63
2022/06/09 03:44:34;;;;;;;43.22;18.00;;;;;;;10.75;100.00;100880.94;5046872;28;20108;-63
2022/06/09 03:47:00;;;;;;;45.88;18.42;;;;;;;10.74;100.00;100880.03;5043770;28;20119;-63
2022/06/09 03:49:25;;;;;;;43.75;18.52;;;;;;;10.73;100.00;100880.94;5046019;28;20111;-64
2022/06/09 03:51:51;;;;;;;43.33;18.52;;;;;;;10.74;100.00;100890.63;5044997;28;20525;-63
2022/06/09 03:54:16;;;;;;;45.47;19.02;;;;;;;10.74;100.00;100890.63;5044973;28;20052;-63
2022/06/09 03:56:42;;;;;;;42.80;18.08;;;;;;;10.75;100.00;100888.88;5045903;28;20075;-63
2022/06/09 03:59:10;;;;;;;41.65;19.15;;;;;;;10.77;100.00;100895.03;5043494;28;20040;-64
2022/06/09 04:01:35;;;;;;;43.00;19.05;;;;;;;10.78;100.00;100889.75;5046673;28;20080;-64
2022/06/09 04:04:00;;;;;;;44.72;19.10;;;;;;;10.78;100.00;100902.97;5043465;28;20472;-63
2022/06/09 04:06:26;;;;;;;49.13;18.98;;;;;;;10.75;100.00;100905.63;5045801;28;20036;-63
2022/06/09 04:08:52;;;;;;;46.75;19.65;;;;;;;10.76;100.00;100914.41;5044822;28;20021;-63
2022/06/09 04:11:19;;;;;;;47.50;19.30;;;;;;;10.77;100.00;100917.06;5044672;28;20026;-63
2022/06/09 04:13:45;;;;;;;43.10;19.17;;;;;;;10.75;100.00;100918.84;5045466;28;20017;-64
2022/06/09 04:16:27;;;;;;;44.47;19.23;;;;;;;10.72;100.00;100910.88;5043792;28;20032;-63
2022/06/09 04:18:55;;;;;;;44.42;19.13;;;;;;;10.69;100.00;100916.16;5043858;28;20040;-64
2022/06/09 04:21:21;;;;;;;42.97;19.83;;;;;;;10.70;100.00;100920.56;5045132;28;20465;-63
2022/06/09 04:23:46;;;;;;;43.15;19.50;;;;;;;10.69;100.00;100929.38;5045372;28;20056;-63
2022/06/09 04:26:15;;;;;;;45.42;19.95;;;;;;;10.72;100.00;100931.16;5043647;28;20468;-65
2022/06/09 04:28:42;;;;;;;47.55;20.67;;;;;;;10.71;100.00;100927.63;5045515;28;20467;-64
2022/06/09 04:31:07;;;;;;;47.42;21.35;;;;;;;10.72;100.00;100933.81;5043256;28;20060;-64
2022/06/09 04:33:32;;;;;;;46.22;20.75;;;;;;;10.74;100.00;100937.34;5045970;28;20471;-63
2022/06/09 04:35:58;;;;;;;45.80;20.55;;;;;;;10.75;100.00;100936.47;5042882;28;20053;-64
2022/06/09 04:38:23;;;;;;;45.13;20.65;;;;;;;10.75;100.00;100936.47;5044947;28;20084;-63
2022/06/09 04:40:48;;;;;;;45.30;20.52;;;;;;;10.74;100.00;100938.22;5044171;28;20108;-64
2022/06/09 04:43:14;;;;;;;43.45;21.05;;;;;;;10.75;100.00;100942.63;5043458;28;20362;-67
2022/06/09 04:45:41;;;;;;;46.60;21.38;;;;;;;10.77;100.00;100948.78;5045645;28;20075;-63
2022/06/09 04:48:07;;;;;;;45.67;21.38;;;;;;;10.79;100.00;100947.06;5042410;28;20030;-63
2022/06/09 04:50:33;;;;;;;50.33;21.77;;;;;;;10.85;100.00;100955.88;5038502;28;20027;-70
2022/06/09 04:52:58;;;;;;;50.13;22.75;;;;;;;10.88;100.00;100950.59;5045367;28;20021;-64
2022/06/09 04:55:24;;;;;;;51.67;22.88;;;;;;;10.90;100.00;100962.09;5043552;28;20035;-63
2022/06/09 04:57:49;;;;;;;43.85;21.45;;;;;;;10.90;100.00;100955.03;5043842;28;20033;-63
2022/06/09 05:00:18;;;;;;;51.22;22.85;;;;;;;10.95;100.00;100960.34;5044686;28;20025;-63
2022/06/09 05:02:44;;;;;;;48.85;22.85;;;;;;;10.98;100.00;100968.31;5042930;28;20519;-63
2022/06/09 05:05:17;;;;;;;46.00;23.20;;;;;;;11.07;100.00;100975.41;5044963;28;20032;-64
2022/06/09 05:07:42;;;;;;;47.80;23.83;;;;;;;11.14;100.00;100986.03;5043009;28;20067;-63
2022/06/09 05:10:09;;;;;;;46.40;23.85;;;;;;;11.23;100.00;100981.66;5045452;28;20024;-64
2022/06/09 05:12:34;;;;;;;47.00;23.48;;;;;;;11.33;100.00;100999.34;5041371;28;20033;-69
2022/06/09 05:14:59;;;;;;;46.53;23.40;;;;;;;11.47;100.00;101002.88;5045096;28;20024;-63
2022/06/09 05:17:25;;;;;;;47.17;23.58;;;;;;;11.65;100.00;101012.66;5042642;28;20143;-65
2022/06/09 05:19:50;;;;;;;50.17;23.30;;;;;;;11.90;100.00;101006.50;5043453;28;20069;-64
2022/06/09 05:22:15;;;;;;;43.00;22.40;;;;;;;12.07;100.00;101007.44;5044746;28;20082;-64
2022/06/09 05:24:40;;;;;;;43.78;21.10;;;;;;;12.15;100.00;101020.72;5042526;28;20088;-64
2022/06/09 05:27:06;;;;;;;42.42;19.77;;;;;;;12.30;100.00;101009.22;5045041;28;20029;-64
2022/06/09 05:29:31;;;;;;;36.58;17.90;;;;;;;12.30;100.00;101009.22;5041993;28;20033;-65
2022/06/09 05:31:57;;;;;;;36.63;17.00;;;;;;;12.40;100.00;101016.28;5043263;28;20395;-65
2022/06/09 05:34:22;;;;;;;39.45;16.83;;;;;;;12.47;100.00;101019.84;5042838;28;20055;-64
2022/06/09 05:36:47;;;;;;;37.45;15.90;;;;;;;12.36;100.00;101035.72;5042463;28;20484;-64
2022/06/09 05:44:53;;;;;;;33.83;14.13;;;;;;;12.23;100.00;101045.44;5031679;28;20036;-66
2022/06/09 05:47:21;;;;;;;31.83;13.65;;;;;;;12.20;100.00;101050.75;5032686;28;20040;-66
2022/06/09 05:49:48;;;;;;;31.73;14.82;;;;;;;12.18;100.00;101050.75;5039545;28;20384;-66
2022/06/09 05:52:15;;;;;;;32.45;15.27;;;;;;;12.31;100.00;101064.91;5041288;28;20025;-66
2022/06/09 05:54:41;;;;;;;37.65;14.07;;;;;;;12.40;100.00;101058.72;5044106;28;20029;-67
2022/06/09 05:57:06;;;;;;;33.72;14.00;;;;;;;12.44;100.00;101057.84;5037029;28;20032;-69
2022/06/09 05:59:32;;;;;;;31.13;14.05;;;;;;;12.63;100.00;101055.19;5040534;28;20529;-68
2022/06/09 06:01:57;;;;;;;34.55;14.15;;;;;;;12.72;100.00;101060.47;5041596;28;20156;-67
2022/06/09 06:04:23;;;;;;;34.22;14.05;;;;;;;12.75;100.00;101065.78;5044087;28;20025;-66
2022/06/09 06:06:48;;;;;;;34.83;13.70;;;;;;;12.94;100.00;101076.38;5043490;28;20353;-66
2022/06/09 06:09:19;;;;;;;28.90;13.90;;;;;;;13.14;100.00;101074.56;5042016;28;20072;-66
2022/06/09 06:11:47;;;;;;;30.85;14.00;;;;;;;13.30;100.00;101082.47;5039183;28;20036;-68
2022/06/09 06:14:12;;;;;;;33.47;13.73;;;;;;;13.36;100.00;101079.84;5042110;28;20025;-67
2022/06/09 06:16:39;;;;;;;29.63;12.13;;;;;;;13.37;100.00;101090.44;5038915;28;20029;-65
2022/06/09 06:19:06;;;;;;;30.52;12.20;;;;;;;13.39;100.00;101093.97;5040734;28;20116;-69
2022/06/09 06:21:32;;;;;;;25.67;10.50;;;;;;;13.30;100.00;101095.75;5044080;28;20025;-66
2022/06/09 06:23:57;;;;;;;28.80;11.27;;;;;;;13.34;100.00;101102.78;5034082;28;20021;-73
2022/06/09 06:26:22;;;;;;;27.48;11.00;;;;;;;13.29;100.00;101099.28;5032509;28;20029;-66
2022/06/09 06:28:48;;;;;;;26.75;11.02;;;;;;;13.42;100.00;101101.91;5031442;28;20037;-72
2022/06/09 06:31:14;;;;;;;27.15;10.60;;;;;;;13.43;100.00;101102.81;5033872;28;20023;-67
2022/06/09 06:33:39;;;;;;;29.92;11.40;;;;;;;13.52;100.00;101117.84;5030847;28;20064;-72
2022/06/09 06:36:05;;;;;;;28.77;10.07;;;;;;;13.44;100.00;101120.53;5037919;28;20098;-69
2022/06/09 06:38:31;;;;;;;25.45;10.18;;;;;;;13.41;100.00;101123.16;5043599;28;20485;-71
2022/06/09 06:40:57;;;;;;;25.95;10.07;;;;;;;13.48;100.00;101124.91;5041679;28;20490;-75
2022/06/09 06:43:23;;;;;;;28.73;10.15;;;;;;;13.58;100.00;101117.81;5044275;28;20030;-70
2022/06/09 06:45:49;;;;;;;25.73;9.68;;;;;;;13.61;100.00;101128.41;5041074;28;20025;-71
2022/06/09 06:48:14;;;;;;;24.58;9.55;;;;;;;13.66;100.00;101134.63;5043913;28;20025;-77
2022/06/09 06:50:40;;;;;;;24.35;9.50;;;;;;;13.67;100.00;101139.00;5041331;28;20479;-74
2022/06/09 06:53:05;;;;;;;24.33;9.07;;;;;;;13.64;100.00;101140.81;5035612;28;20040;-70
2022/06/09 06:55:31;;;;;;;29.00;9.80;;;;;;;13.76;100.00;101154.03;5039447;28;20115;-74
2022/06/09 06:57:56;;;;;;;24.77;8.70;;;;;;;13.73;100.00;101154.06;5041521;28;20032;-68
2022/06/09 07:00:24;;;;;;;24.92;8.35;;;;;;;13.71;100.00;101155.84;5040071;28;20029;-72
2022/06/09 07:02:50;;;;;;;22.67;8.20;;;;;;;13.73;100.00;101151.41;5042571;28;20017;-74
2022/06/09 07:05:17;;;;;;;22.13;8.10;;;;;;;13.78;100.00;101158.47;5034156;28;20026;-72
2022/06/09 07:07:42;;;;;;;26.25;9.00;;;;;;;13.81;100.00;101156.69;5039095;28;20099;-71
2022/06/09 07:10:10;;;;;;;24.88;9.02;;;;;;;13.89;100.00;101169.06;5040335;28;20029;-72
2022/06/09 07:12:36;;;;;;;23.88;8.60;;;;;;;13.85;100.00;101172.63;5043301;28;20499;-66
2022/06/09 07:15:02;;;;;;;23.20;8.20;;;;;;;13.89;100.00;101182.34;5040651;28;20052;-72
2022/06/09 07:17:27;;;;;;;23.70;9.00;;;;;;;13.99;100.00;101176.97;5043914;28;20029;-66
2022/06/09 07:19:53;;;;;;;23.25;8.65;;;;;;;14.10;100.00;101192.00;5033416;28;20060;-65
2022/06/09 07:22:19;;;;;;;23.95;7.45;;;;;;;14.19;100.00;101187.53;5047305;28;20033;-68
2022/06/09 07:24:46;;;;;;;21.70;7.20;;;;;;;14.22;100.00;101196.34;5030703;28;20033;-69
2022/06/09 07:27:12;;;;;;;19.92;5.78;;;;;;;14.23;100.00;101200.78;5036929;28;20033;-71
2022/06/09 07:29:41;;;;;;;19.55;5.55;;;;;;;14.22;100.00;101203.47;5039130;28;20372;-72
2022/06/09 07:32:07;;;;;;;19.85;5.47;;;;;;;14.28;100.00;101204.31;5042021;28;20037;-67
2022/06/09 07:34:33;;;;;;;18.30;4.97;;;;;;;14.33;100.00;101203.38;5042982;28;20041;-67
2022/06/09 07:36:59;;;;;;;19.17;5.50;;;;;;;14.46;100.00;101199.78;5042116;28;20492;-70
2022/06/09 07:39:25;;;;;;;17.30;5.10;;;;;;;14.70;100.00;101197.91;5044938;28;20025;-69
2022/06/09 07:41:51;;;;;;;18.08;4.90;;;;;;;14.99;100.00;101206.53;5048870;28;20105;-72
2022/06/09 07:44:17;;;;;;;18.77;5.07;;;;;;;15.22;100.00;101202.78;5043299;28;20040;-74
2022/06/09 07:46:43;;;;;;;17.83;4.95;;;;;;;15.44;100.00;101194.59;5039913;28;20029;-67
2022/06/09 07:49:09;;;;;;;18.45;4.57;;;;;;;15.68;100.00;101197.00;5046320;28;20023;-67
2022/06/09 07:51:35;;;;;;;14.48;4.32;;;;;;;15.92;100.00;101204.75;5047135;28;20383;-67
2022/06/09 07:54:00;;;;;;;15.57;4.20;;;;;;;15.91;100.00;101206.53;5041746;28;20034;-72
2022/06/09 07:56:26;;;;;;;11.75;3.60;;;;;;;15.88;100.00;101209.22;5044327;28;20124;-71
2022/06/09 07:58:52;;;;;;;14.45;3.65;;;;;;;16.06;100.00;101208.09;5047034;28;20032;-71
2022/06/09 08:01:20;;;;;;;10.60;3.22;;;;;;;16.19;100.00;101209.75;5045737;28;20025;-68
2022/06/09 08:03:46;;;;;;;10.02;2.88;;;;;;;15.81;100.00;101216.44;5045252;28;20032;-69
2022/06/09 08:06:13;;;;;;;11.50;3.00;;;;;;;15.58;100.00;101219.31;5045025;28;20999;-67
2022/06/09 08:08:39;;;;;;;11.43;3.10;;;;;;;15.77;100.00;101221.75;5043140;28;20386;-66
2022/06/09 08:11:05;;;;;;;11.07;3.30;;;;;;;16.03;100.00;101226.81;5046179;28;20021;-68
2022/06/09 08:13:32;;;;;;;11.30;3.30;;;;;;;15.98;100.00;101224.22;5043437;28;20022;-69
2022/06/09 08:15:58;;;;;;;13.95;3.80;;;;;;;16.08;100.00;101224.13;5045401;28;20025;-64
2022/06/09 08:18:24;;;;;;;14.02;3.92;;;;;;;16.08;100.00;101240.13;5043324;28;20033;-71
2022/06/09 08:20:50;;;;;;;13.73;3.72;;;;;;;16.11;100.00;101224.06;5041489;28;20114;-70
2022/06/09 08:23:21;;;;;;;14.68;4.05;;;;;;;16.18;100.00;101233.78;5040177;28;20025;-72
2022/06/09 08:25:48;;;;;;;14.35;4.00;;;;;;;16.35;100.00;101242.44;5042858;28;20029;-73
2022/06/09 08:28:18;;;;;;;21.08;5.93;;;;;;;16.21;100.00;101244.41;5045342;28;20380;-74
2022/06/09 08:30:45;;;;;;;14.10;4.13;;;;;;;16.10;100.00;101248.97;5038667;28;20038;-70
2022/06/09 08:33:10;;;;;;;16.95;4.50;;;;;;;16.04;100.00;101256.13;5045006;28;20091;-73
2022/06/09 08:35:36;;;;;;;15.10;4.25;;;;;;;16.13;100.00;101254.25;5042065;28;20496;-73
2022/06/09 08:38:02;;;;;;;16.27;4.68;;;;;;;16.19;100.00;101262.19;5045098;28;20361;-73
2022/06/09 08:40:33;;;;;;;14.63;4.43;;;;;;;16.24;100.00;101263.03;5042504;28;20025;-69
2022/06/09 08:43:30;;;;;;;13.35;3.95;;;;;;;16.52;100.00;101276.88;5034694;28;20483;-67
2022/06/09 08:45:57;;;;;;;14.30;4.38;;;;;;;16.73;100.00;101283.72;5043176;28;20135;-63
2022/06/09 08:48:37;;;;;;;13.55;3.42;;;;;;;16.92;100.00;101280.81;5036903;28;20028;-65
2022/06/09 08:51:11;;;;;;;13.43;3.50;;;;;;;16.91;100.00;101279.03;5038689;28;20061;-71
2022/06/09 08:53:45;;;;;;;13.48;3.60;;;;;;;17.10;100.00;101284.97;5039418;28;20025;-73
2022/06/09 08:56:26;;;;;;;15.00;3.75;;;;;;;17.03;100.00;101292.19;5044898;28;20028;-70
2022/06/09 08:58:59;;;;;;;13.90;3.80;;;;;;;17.09;100.00;101291.22;5044208;28;20163;-64
2022/06/09 09:01:45;;;;;;;13.85;3.33;;;;;;;16.83;100.00;101287.09;5043476;28;20020;-66
2022/06/09 09:04:15;;;;;;;10.02;3.17;;;;;;;17.05;100.00;101298.41;5040554;28;20032;-67
2022/06/09 09:06:50;;;;;;;14.60;3.35;;;;;;;17.15;100.00;101292.91;5044557;28;20100;-71
2022/06/09 09:09:29;;;;;;;12.80;3.38;;;;;;;17.21;100.00;101298.16;5043766;28;20033;-65
2022/06/09 09:12:12;;;;;;;10.85;3.58;;;;;;;17.15;100.00;101304.47;5036557;28;20025;-65
2022/06/09 09:14:53;;;;;;;13.07;3.40;;;;;;;17.57;100.00;101304.66;5039933;28;20396;-69
2022/06/09 09:17:34;;;;;;;12.38;3.20;;;;;;;17.94;100.00;101305.84;5042482;28;20068;-74
2022/06/09 09:20:24;;;;;;;10.98;3.20;;;;;;;18.04;100.00;101306.53;5041048;28;20081;-75
2022/06/09 09:23:08;;;;;;;8.90;2.90;;;;;;;17.77;100.00;101312.34;5038105;28;20083;-73
2022/06/09 09:25:53;;;;;;;9.57;2.95;;;;;;;17.81;100.00;101318.53;5043912;28;20065;-66
2022/06/09 09:28:28;;;;;;;11.77;3.10;;;;;;;17.91;100.00;101316.56;5033731;28;20461;-74
2022/06/09 09:31:26;;;;;;;12.35;3.20;;;;;;;17.88;100.00;101325.53;5039132;28;20034;-65
2022/06/09 09:33:51;;;;;;;12.05;3.42;;;;;;;17.93;100.00;101328.16;5034675;28;20032;-74
2022/06/09 09:36:29;;;;;;;13.13;3.72;;;;;;;18.16;100.00;101327.72;5041722;28;20168;-73
2022/06/09 09:38:59;;;;;;;14.65;4.22;;;;;;;18.50;100.00;101334.19;5037891;28;20037;-72
2022/06/09 09:41:44;;;;;;;16.23;3.92;;;;;;;18.76;100.00;101333.63;5039939;28;20029;-72
2022/06/09 09:44:19;;;;;;;13.70;4.13;;;;;;;18.85;100.00;101332.53;5041103;28;20031;-70
2022/06/09 09:46:57;;;;;;;13.77;4.00;;;;;;;18.93;100.00;101335.94;5043767;28;20022;-71
2022/06/09 09:49:29;;;;;;;12.85;4.00;;;;;;;19.03;100.00;101342.84;5037064;28;20028;-72
2022/06/09 09:51:56;;;;;;;16.25;4.43;;;;;;;19.16;100.00;101338.97;5045050;28;20044;-64
2022/06/09 09:54:28;;;;;;;17.00;4.85;;;;;;;19.13;100.00;101355.13;5041688;28;20036;-64
2022/06/09 09:57:13;;;;;;;;;;;;;;;19.49;100.00;101357.81;5042920;28;20036;-68
2022/06/09 09:59:49;;;;;;;15.80;4.88;;;;;;;19.40;100.00;101352.69;5042340;28;19917;-64
2022/06/09 10:08:39;;;;;;;15.95;4.60;;;;;;;19.40;100.00;101362.56;5042150;28;20040;-66
2022/06/09 10:14:01;;;;;;;19.17;6.28;;;;;;;18.32;100.00;101392.50;5042894;28;20136;-64
2022/06/09 10:16:30;;;;;;;21.65;6.95;;;;;;;17.43;100.00;101374.41;5042678;28;20048;-65
2022/06/09 10:19:01;;;;;;;15.38;4.78;;;;;;;16.62;100.00;101373.72;5042744;28;20120;-72
2022/06/09 10:21:27;;;;;;;15.20;5.20;;;;;;;16.27;100.00;101377.69;5042215;28;20036;-65
2022/06/09 10:24:05;;;;;;;16.00;5.40;;;;;;;16.39;100.00;101374.84;5042485;28;20014;-64
2022/06/09 10:26:34;;;;;;;17.92;6.25;;;;;;;16.66;100.00;101378.13;5041665;28;20383;-68
2022/06/09 10:29:26;;;;;;;18.63;7.25;;;;;;;17.15;100.00;101376.59;5043173;28;20084;-64
2022/06/09 10:31:59;;;;;;;18.92;7.80;;;;;;;17.35;100.00;101376.28;5018170;28;20160;-65
2022/06/09 10:34:36;;;;;;;20.92;8.50;;;;;;;17.76;100.00;101385.41;5020409;28;20539;-70
2022/06/09 10:37:25;;;;;;;19.88;8.50;;;;;;;17.99;100.00;101388.66;5021081;28;20751;-64
2022/06/09 10:40:05;;;;;;;19.88;8.80;;;;;;;18.28;100.00;101393.47;5019889;28;20025;-65
2022/06/09 10:42:39;;;;;;;20.90;9.40;;;;;;;18.99;100.00;101390.25;5019432;28;20100;-64
2022/06/09 10:45:27;;;;;;;19.85;9.60;;;;;;;20.95;100.00;101396.88;5021962;28;20047;-64
2022/06/09 10:57:00;;;;;;;20.85;9.00;;;;;;;23.20;100.00;101391.81;5016078;28;20532;-66
2022/06/09 10:59:39;;;;;;;18.75;7.97;;;;;;;24.49;97.75;101404.38;5020162;28;20034;-64
2022/06/09 11:02:13;;;;;;;18.92;7.35;;;;;;;25.73;91.23;101385.88;5021503;28;20048;-70
2022/06/09 11:04:38;;;;;;;19.42;7.25;;;;;;;26.21;78.37;101404.22;5016076;28;20502;-78
2022/06/09 11:07:38;;;;;;;19.30;7.45;;;;;;;27.07;82.86;101396.88;5021951;28;20033;-75
2022/06/09 11:10:48;;;;;;;16.25;4.70;;;;;;;28.04;69.11;101398.53;5035545;28;20052;-77
2022/06/09 11:13:35;;;;;;;17.25;5.10;;;;;;;28.52;68.55;101401.03;5031128;28;20048;-76
2022/06/09 11:16:01;;;;;;;15.68;3.83;;;;;;;28.47;53.75;101404.06;5029216;28;20080;-74
2022/06/09 11:18:49;;;;;;;13.43;3.75;;;;;;;28.89;56.66;101406.00;5031205;28;20037;-76
2022/06/09 11:21:33;;;;;;;15.43;3.60;;;;;;;27.79;52.64;101410.84;5031149;28;20041;-74
2022/06/09 11:24:31;;;;;;;13.60;3.63;;;;;;;26.28;59.39;101405.66;5028920;28;20033;-68
2022/06/09 11:27:12;;;;;;;12.45;3.42;;;;;;;25.57;63.17;101404.72;5030138;28;20480;-68
2022/06/09 11:29:50;;;;;;;15.98;3.67;;;;;;;27.08;57.21;101416.72;5029215;28;20491;-68
2022/06/09 11:32:29;;;;;;;16.77;3.80;;;;;;;24.92;58.10;101396.13;5031165;28;20132;-67
2022/06/09 11:35:20;;;;;;;15.60;3.83;;;;;;;23.03;70.28;101407.75;5031053;28;20488;-67
2022/06/09 11:38:04;;;;;;;16.45;4.07;;;;;;;21.65;69.74;101404.53;5031346;28;20057;-66
2022/06/09 11:41:01;;;;;;;15.88;4.40;;;;;;;20.19;78.50;101421.34;5028810;28;20152;-67